sensor_id;sensor_type;location;lat;lon;timestamp;P1;durP1;ratioP1;P2;durP2;ratioP2
44694;SDS011;32845;59.422;17.930;2023-05-10T00:01:17;13.95;;;4.20;;
44694;SDS011;32845;59.422;17.930;2023-05-10T00:05:48;9.80;;;4.43;;
44694;SDS011;32845;59.422;17.930;2023-05-10T00:10:18;12.23;;;3.78;;
44694;SDS011;32845;59.422;17.930;2023-05-10T00:14:49;8.82;;;3.90;;
44694;SDS011;32845;59.422;17.930;2023-05-10T00:19:20;11.10;;;3.70;;
44694;SDS011;32845;59.422;17.930;2023-05-10T00:23:51;12.02;;;4.13;;
44694;SDS011;32845;59.422;17.930;2023-05-10T00:28:22;9.55;;;4.50;;
44694;SDS011;32845;59.422;17.930;2023-05-10T00:32:53;8.48;;;3.72;;
44694;SDS011;32845;59.422;17.930;2023-05-10T00:37:23;10.82;;;4.57;;
44694;SDS011;32845;59.422;17.930;2023-05-10T00:41:54;13.82;;;4.47;;
44694;SDS011;32845;59.422;17.930;2023-05-10T00:46:25;10.55;;;4.20;;
44694;SDS011;32845;59.422;17.930;2023-05-10T00:50:56;12.13;;;4.53;;
44694;SDS011;32845;59.422;17.930;2023-05-10T00:55:27;10.50;;;4.80;;
44694;SDS011;32845;59.422;17.930;2023-05-10T00:59:58;14.48;;;4.63;;
44694;SDS011;32845;59.422;17.930;2023-05-10T01:04:29;7.93;;;3.63;;
44694;SDS011;32845;59.422;17.930;2023-05-10T01:09:00;11.05;;;4.18;;
44694;SDS011;32845;59.422;17.930;2023-05-10T01:13:34;7.53;;;4.03;;
44694;SDS011;32845;59.422;17.930;2023-05-10T01:18:07;9.82;;;4.25;;
44694;SDS011;32845;59.422;17.930;2023-05-10T01:33:08;11.68;;;4.40;;
44694;SDS011;32845;59.422;17.930;2023-05-10T01:42:48;11.75;;;3.70;;
44694;SDS011;32845;59.422;17.930;2023-05-10T01:47:27;9.18;;;4.00;;
44694;SDS011;32845;59.422;17.930;2023-05-10T01:52:06;9.75;;;4.13;;
44694;SDS011;32845;59.422;17.930;2023-05-10T01:56:42;10.35;;;4.13;;
44694;SDS011;32845;59.422;17.930;2023-05-10T02:01:15;16.55;;;3.85;;
44694;SDS011;32845;59.422;17.930;2023-05-10T02:05:48;10.05;;;3.85;;
44694;SDS011;32845;59.422;17.930;2023-05-10T02:10:19;10.25;;;4.03;;
44694;SDS011;32845;59.422;17.930;2023-05-10T02:14:50;9.95;;;3.88;;
44694;SDS011;32845;59.422;17.930;2023-05-10T02:19:23;6.18;;;4.18;;
44694;SDS011;32845;59.422;17.930;2023-05-10T02:23:56;12.98;;;4.53;;
44694;SDS011;32845;59.422;17.930;2023-05-10T02:28:28;14.30;;;4.20;;
44694;SDS011;32845;59.422;17.930;2023-05-10T02:33:01;9.45;;;4.03;;
44694;SDS011;32845;59.422;17.930;2023-05-10T02:37:34;7.43;;;3.78;;
44694;SDS011;32845;59.422;17.930;2023-05-10T02:42:07;15.73;;;4.55;;
44694;SDS011;32845;59.422;17.930;2023-05-10T02:46:38;13.07;;;4.03;;
44694;SDS011;32845;59.422;17.930;2023-05-10T02:51:09;5.97;;;3.47;;
44694;SDS011;32845;59.422;17.930;2023-05-10T02:55:43;8.48;;;4.15;;
44694;SDS011;32845;59.422;17.930;2023-05-10T03:00:17;16.13;;;3.72;;
44694;SDS011;32845;59.422;17.930;2023-05-10T03:04:48;13.55;;;4.20;;
44694;SDS011;32845;59.422;17.930;2023-05-10T03:09:19;9.43;;;4.18;;
44694;SDS011;32845;59.422;17.930;2023-05-10T03:13:56;8.48;;;4.18;;
44694;SDS011;32845;59.422;17.930;2023-05-10T03:18:47;17.33;;;4.60;;
44694;SDS011;32845;59.422;17.930;2023-05-10T03:23:58;12.93;;;4.32;;
44694;SDS011;32845;59.422;17.930;2023-05-10T03:28:35;15.27;;;4.55;;
44694;SDS011;32845;59.422;17.930;2023-05-10T03:33:06;11.85;;;3.95;;
44694;SDS011;32845;59.422;17.930;2023-05-10T03:37:37;8.93;;;4.28;;
44694;SDS011;32845;59.422;17.930;2023-05-10T03:42:08;5.47;;;3.55;;
44694;SDS011;32845;59.422;17.930;2023-05-10T03:46:41;8.55;;;3.85;;
44694;SDS011;32845;59.422;17.930;2023-05-10T03:51:12;8.35;;;5.00;;
44694;SDS011;32845;59.422;17.930;2023-05-10T03:55:42;8.57;;;3.70;;
44694;SDS011;32845;59.422;17.930;2023-05-10T04:00:13;13.63;;;3.92;;
44694;SDS011;32845;59.422;17.930;2023-05-10T04:04:44;10.68;;;4.10;;
44694;SDS011;32845;59.422;17.930;2023-05-10T04:09:15;10.50;;;4.13;;
44694;SDS011;32845;59.422;17.930;2023-05-10T04:13:46;9.35;;;3.97;;
44694;SDS011;32845;59.422;17.930;2023-05-10T04:18:17;13.48;;;3.72;;
44694;SDS011;32845;59.422;17.930;2023-05-10T04:22:47;14.68;;;3.55;;
44694;SDS011;32845;59.422;17.930;2023-05-10T04:27:18;22.55;;;5.78;;
44694;SDS011;32845;59.422;17.930;2023-05-10T04:31:49;10.38;;;4.03;;
44694;SDS011;32845;59.422;17.930;2023-05-10T04:36:19;10.30;;;4.30;;
44694;SDS011;32845;59.422;17.930;2023-05-10T04:40:50;7.07;;;3.80;;
44694;SDS011;32845;59.422;17.930;2023-05-10T04:45:21;10.52;;;3.92;;
44694;SDS011;32845;59.422;17.930;2023-05-10T04:49:52;11.50;;;3.38;;
44694;SDS011;32845;59.422;17.930;2023-05-10T04:54:22;11.85;;;3.95;;
44694;SDS011;32845;59.422;17.930;2023-05-10T04:58:53;19.40;;;3.53;;
44694;SDS011;32845;59.422;17.930;2023-05-10T05:03:24;6.70;;;2.88;;
44694;SDS011;32845;59.422;17.930;2023-05-10T05:07:55;9.57;;;3.05;;
44694;SDS011;32845;59.422;17.930;2023-05-10T05:12:26;11.95;;;3.53;;
44694;SDS011;32845;59.422;17.930;2023-05-10T05:16:56;12.13;;;3.33;;
44694;SDS011;32845;59.422;17.930;2023-05-10T05:21:27;24.80;;;3.55;;
44694;SDS011;32845;59.422;17.930;2023-05-10T05:25:58;5.20;;;3.28;;
44694;SDS011;32845;59.422;17.930;2023-05-10T05:30:29;9.43;;;3.00;;
44694;SDS011;32845;59.422;17.930;2023-05-10T05:34:59;13.43;;;3.03;;
44694;SDS011;32845;59.422;17.930;2023-05-10T05:39:30;11.57;;;3.22;;
44694;SDS011;32845;59.422;17.930;2023-05-10T05:44:01;18.77;;;3.00;;
44694;SDS011;32845;59.422;17.930;2023-05-10T05:48:31;17.00;;;2.70;;
44694;SDS011;32845;59.422;17.930;2023-05-10T05:53:02;10.48;;;2.85;;
44694;SDS011;32845;59.422;17.930;2023-05-10T05:57:32;12.40;;;3.33;;
44694;SDS011;32845;59.422;17.930;2023-05-10T06:02:03;12.73;;;2.88;;
44694;SDS011;32845;59.422;17.930;2023-05-10T06:06:34;9.27;;;2.67;;
44694;SDS011;32845;59.422;17.930;2023-05-10T06:11:04;10.27;;;3.45;;
44694;SDS011;32845;59.422;17.930;2023-05-10T06:15:35;11.40;;;3.10;;
44694;SDS011;32845;59.422;17.930;2023-05-10T06:20:06;10.80;;;2.92;;
44694;SDS011;32845;59.422;17.930;2023-05-10T06:24:37;10.15;;;2.83;;
44694;SDS011;32845;59.422;17.930;2023-05-10T06:29:08;10.02;;;2.85;;
44694;SDS011;32845;59.422;17.930;2023-05-10T06:33:38;17.13;;;3.00;;
44694;SDS011;32845;59.422;17.930;2023-05-10T06:38:09;16.13;;;3.17;;
44694;SDS011;32845;59.422;17.930;2023-05-10T06:42:40;15.07;;;3.20;;
44694;SDS011;32845;59.422;17.930;2023-05-10T06:47:11;11.23;;;2.67;;
44694;SDS011;32845;59.422;17.930;2023-05-10T06:51:41;13.07;;;2.65;;
44694;SDS011;32845;59.422;17.930;2023-05-10T06:56:12;9.23;;;2.50;;
44694;SDS011;32845;59.422;17.930;2023-05-10T07:00:43;9.48;;;2.75;;
44694;SDS011;32845;59.422;17.930;2023-05-10T07:05:15;12.80;;;2.55;;
44694;SDS011;32845;59.422;17.930;2023-05-10T07:09:45;12.15;;;2.90;;
44694;SDS011;32845;59.422;17.930;2023-05-10T07:14:16;9.57;;;3.35;;
44694;SDS011;32845;59.422;17.930;2023-05-10T07:18:47;13.57;;;3.20;;
44694;SDS011;32845;59.422;17.930;2023-05-10T07:23:17;7.28;;;2.70;;
44694;SDS011;32845;59.422;17.930;2023-05-10T07:27:48;8.02;;;2.53;;
44694;SDS011;32845;59.422;17.930;2023-05-10T07:32:19;6.30;;;2.58;;
44694;SDS011;32845;59.422;17.930;2023-05-10T07:36:49;7.80;;;2.30;;
44694;SDS011;32845;59.422;17.930;2023-05-10T07:41:20;12.25;;;2.60;;
44694;SDS011;32845;59.422;17.930;2023-05-10T07:45:51;10.38;;;2.20;;
44694;SDS011;32845;59.422;17.930;2023-05-10T07:50:21;7.47;;;2.58;;
44694;SDS011;32845;59.422;17.930;2023-05-10T07:54:52;4.97;;;2.13;;
44694;SDS011;32845;59.422;17.930;2023-05-10T07:59:23;14.98;;;2.55;;
44694;SDS011;32845;59.422;17.930;2023-05-10T08:03:54;12.45;;;2.65;;
44694;SDS011;32845;59.422;17.930;2023-05-10T08:08:24;11.85;;;2.65;;
44694;SDS011;32845;59.422;17.930;2023-05-10T08:12:55;19.63;;;3.20;;
44694;SDS011;32845;59.422;17.930;2023-05-10T08:17:26;10.05;;;2.38;;
44694;SDS011;32845;59.422;17.930;2023-05-10T08:21:56;9.00;;;2.70;;
44694;SDS011;32845;59.422;17.930;2023-05-10T08:26:27;6.57;;;2.38;;
44694;SDS011;32845;59.422;17.930;2023-05-10T08:30:57;9.40;;;2.58;;
44694;SDS011;32845;59.422;17.930;2023-05-10T08:35:28;12.05;;;2.58;;
44694;SDS011;32845;59.422;17.930;2023-05-10T08:39:58;10.93;;;2.45;;
44694;SDS011;32845;59.422;17.930;2023-05-10T08:44:32;7.38;;;2.60;;
44694;SDS011;32845;59.422;17.930;2023-05-10T08:49:06;11.13;;;2.58;;
44694;SDS011;32845;59.422;17.930;2023-05-10T08:53:38;27.95;;;3.05;;
44694;SDS011;32845;59.422;17.930;2023-05-10T08:58:09;5.82;;;2.42;;
44694;SDS011;32845;59.422;17.930;2023-05-10T09:02:40;6.68;;;2.75;;
44694;SDS011;32845;59.422;17.930;2023-05-10T09:07:11;10.68;;;3.88;;
44694;SDS011;32845;59.422;17.930;2023-05-10T09:11:43;14.32;;;2.65;;
44694;SDS011;32845;59.422;17.930;2023-05-10T09:16:14;6.85;;;2.70;;
44694;SDS011;32845;59.422;17.930;2023-05-10T09:20:45;10.05;;;2.22;;
44694;SDS011;32845;59.422;17.930;2023-05-10T09:25:15;8.85;;;2.22;;
44694;SDS011;32845;59.422;17.930;2023-05-10T09:29:46;5.38;;;2.70;;
44694;SDS011;32845;59.422;17.930;2023-05-10T09:34:17;6.07;;;2.45;;
44694;SDS011;32845;59.422;17.930;2023-05-10T09:38:50;12.05;;;2.80;;
44694;SDS011;32845;59.422;17.930;2023-05-10T09:43:22;11.63;;;2.60;;
44694;SDS011;32845;59.422;17.930;2023-05-10T09:47:53;5.93;;;2.47;;
44694;SDS011;32845;59.422;17.930;2023-05-10T09:52:24;4.93;;;2.22;;
44694;SDS011;32845;59.422;17.930;2023-05-10T09:56:55;18.88;;;2.60;;
44694;SDS011;32845;59.422;17.930;2023-05-10T10:01:26;16.40;;;3.08;;
44694;SDS011;32845;59.422;17.930;2023-05-10T10:05:56;17.30;;;2.53;;
44694;SDS011;32845;59.422;17.930;2023-05-10T10:10:27;4.65;;;2.40;;
44694;SDS011;32845;59.422;17.930;2023-05-10T10:14:58;16.02;;;2.45;;
44694;SDS011;32845;59.422;17.930;2023-05-10T10:19:32;8.50;;;2.22;;
44694;SDS011;32845;59.422;17.930;2023-05-10T10:24:04;5.78;;;2.33;;
44694;SDS011;32845;59.422;17.930;2023-05-10T10:28:38;8.57;;;2.65;;
44694;SDS011;32845;59.422;17.930;2023-05-10T10:33:30;8.27;;;2.47;;
44694;SDS011;32845;59.422;17.930;2023-05-10T10:38:04;7.93;;;2.30;;
44694;SDS011;32845;59.422;17.930;2023-05-10T10:42:43;4.22;;;2.05;;
44694;SDS011;32845;59.422;17.930;2023-05-10T10:47:24;6.97;;;1.92;;
44694;SDS011;32845;59.422;17.930;2023-05-10T10:52:22;11.40;;;2.80;;
44694;SDS011;32845;59.422;17.930;2023-05-10T10:57:12;9.45;;;2.38;;
44694;SDS011;32845;59.422;17.930;2023-05-10T11:01:44;13.75;;;3.40;;
44694;SDS011;32845;59.422;17.930;2023-05-10T11:06:17;9.52;;;2.45;;
44694;SDS011;32845;59.422;17.930;2023-05-10T11:15:34;8.38;;;2.28;;
44694;SDS011;32845;59.422;17.930;2023-05-10T11:20:09;6.07;;;2.53;;
44694;SDS011;32845;59.422;17.930;2023-05-10T11:24:40;8.40;;;2.28;;
44694;SDS011;32845;59.422;17.930;2023-05-10T11:29:26;11.05;;;2.25;;
44694;SDS011;32845;59.422;17.930;2023-05-10T11:33:57;15.10;;;2.70;;
44694;SDS011;32845;59.422;17.930;2023-05-10T11:38:29;9.40;;;2.28;;
44694;SDS011;32845;59.422;17.930;2023-05-10T11:43:03;7.35;;;2.10;;
44694;SDS011;32845;59.422;17.930;2023-05-10T11:47:34;7.13;;;2.38;;
44694;SDS011;32845;59.422;17.930;2023-05-10T11:52:07;11.43;;;2.35;;
44694;SDS011;32845;59.422;17.930;2023-05-10T11:56:39;12.77;;;2.30;;
44694;SDS011;32845;59.422;17.930;2023-05-10T12:01:10;5.57;;;2.13;;
44694;SDS011;32845;59.422;17.930;2023-05-10T12:05:41;9.75;;;2.40;;
44694;SDS011;32845;59.422;17.930;2023-05-10T12:10:12;5.28;;;2.30;;
44694;SDS011;32845;59.422;17.930;2023-05-10T12:14:47;12.07;;;2.38;;
44694;SDS011;32845;59.422;17.930;2023-05-10T12:19:20;8.48;;;2.92;;
44694;SDS011;32845;59.422;17.930;2023-05-10T12:23:54;5.90;;;2.28;;
44694;SDS011;32845;59.422;17.930;2023-05-10T12:28:29;7.32;;;2.40;;
44694;SDS011;32845;59.422;17.930;2023-05-10T12:33:02;13.10;;;2.33;;
44694;SDS011;32845;59.422;17.930;2023-05-10T12:37:37;8.85;;;2.10;;
44694;SDS011;32845;59.422;17.930;2023-05-10T12:42:09;6.70;;;2.10;;
44694;SDS011;32845;59.422;17.930;2023-05-10T12:46:40;7.05;;;2.15;;
44694;SDS011;32845;59.422;17.930;2023-05-10T12:51:11;6.28;;;2.03;;
44694;SDS011;32845;59.422;17.930;2023-05-10T12:55:47;14.77;;;2.65;;
44694;SDS011;32845;59.422;17.930;2023-05-10T13:00:17;11.35;;;2.35;;
44694;SDS011;32845;59.422;17.930;2023-05-10T13:04:48;17.10;;;2.45;;
44694;SDS011;32845;59.422;17.930;2023-05-10T13:09:19;11.65;;;2.40;;
44694;SDS011;32845;59.422;17.930;2023-05-10T13:13:51;8.60;;;2.38;;
44694;SDS011;32845;59.422;17.930;2023-05-10T13:18:21;8.57;;;2.25;;
44694;SDS011;32845;59.422;17.930;2023-05-10T13:22:52;9.70;;;2.03;;
44694;SDS011;32845;59.422;17.930;2023-05-10T13:27:23;9.68;;;1.98;;
44694;SDS011;32845;59.422;17.930;2023-05-10T13:31:54;10.57;;;1.85;;
44694;SDS011;32845;59.422;17.930;2023-05-10T13:36:24;3.05;;;1.73;;
44694;SDS011;32845;59.422;17.930;2023-05-10T13:40:55;6.22;;;2.15;;
44694;SDS011;32845;59.422;17.930;2023-05-10T13:45:26;14.55;;;1.90;;
44694;SDS011;32845;59.422;17.930;2023-05-10T13:49:56;4.78;;;2.00;;
44694;SDS011;32845;59.422;17.930;2023-05-10T13:54:27;10.98;;;1.85;;
44694;SDS011;32845;59.422;17.930;2023-05-10T13:58:59;8.95;;;1.70;;
44694;SDS011;32845;59.422;17.930;2023-05-10T14:03:30;15.68;;;2.25;;
44694;SDS011;32845;59.422;17.930;2023-05-10T14:08:00;5.68;;;1.67;;
44694;SDS011;32845;59.422;17.930;2023-05-10T14:12:31;15.35;;;2.20;;
44694;SDS011;32845;59.422;17.930;2023-05-10T14:17:02;12.93;;;2.30;;
44694;SDS011;32845;59.422;17.930;2023-05-10T14:21:32;7.47;;;2.20;;
44694;SDS011;32845;59.422;17.930;2023-05-10T14:26:03;7.25;;;1.75;;
44694;SDS011;32845;59.422;17.930;2023-05-10T14:30:34;9.68;;;1.63;;
44694;SDS011;32845;59.422;17.930;2023-05-10T14:35:04;7.82;;;2.05;;
44694;SDS011;32845;59.422;17.930;2023-05-10T14:39:37;4.88;;;1.52;;
44694;SDS011;32845;59.422;17.930;2023-05-10T14:44:08;6.40;;;1.50;;
44694;SDS011;32845;59.422;17.930;2023-05-10T14:48:39;15.15;;;2.20;;
44694;SDS011;32845;59.422;17.930;2023-05-10T14:53:10;5.22;;;1.80;;
44694;SDS011;32845;59.422;17.930;2023-05-10T14:57:41;14.25;;;1.90;;
44694;SDS011;32845;59.422;17.930;2023-05-10T15:02:12;4.97;;;2.03;;
44694;SDS011;32845;59.422;17.930;2023-05-10T15:06:43;14.30;;;1.95;;
44694;SDS011;32845;59.422;17.930;2023-05-10T15:11:14;12.25;;;2.10;;
44694;SDS011;32845;59.422;17.930;2023-05-10T15:15:44;6.22;;;2.67;;
44694;SDS011;32845;59.422;17.930;2023-05-10T15:20:15;4.00;;;1.75;;
44694;SDS011;32845;59.422;17.930;2023-05-10T15:24:46;5.93;;;2.22;;
44694;SDS011;32845;59.422;17.930;2023-05-10T15:29:16;6.25;;;2.05;;
44694;SDS011;32845;59.422;17.930;2023-05-10T15:33:49;14.02;;;1.50;;
44694;SDS011;32845;59.422;17.930;2023-05-10T15:38:20;3.95;;;1.88;;
44694;SDS011;32845;59.422;17.930;2023-05-10T15:42:51;7.20;;;2.22;;
44694;SDS011;32845;59.422;17.930;2023-05-10T15:47:21;3.70;;;1.70;;
44694;SDS011;32845;59.422;17.930;2023-05-10T15:51:52;8.48;;;1.92;;
44694;SDS011;32845;59.422;17.930;2023-05-10T15:56:23;6.25;;;1.60;;
44694;SDS011;32845;59.422;17.930;2023-05-10T16:00:53;4.78;;;1.50;;
44694;SDS011;32845;59.422;17.930;2023-05-10T16:05:24;8.40;;;2.45;;
44694;SDS011;32845;59.422;17.930;2023-05-10T16:09:58;6.82;;;1.90;;
44694;SDS011;32845;59.422;17.930;2023-05-10T16:14:30;3.33;;;1.70;;
44694;SDS011;32845;59.422;17.930;2023-05-10T16:19:01;13.05;;;1.98;;
44694;SDS011;32845;59.422;17.930;2023-05-10T16:23:32;10.25;;;1.58;;
44694;SDS011;32845;59.422;17.930;2023-05-10T16:28:03;15.02;;;1.95;;
44694;SDS011;32845;59.422;17.930;2023-05-10T16:32:34;9.82;;;2.00;;
44694;SDS011;32845;59.422;17.930;2023-05-10T16:37:04;3.70;;;1.75;;
44694;SDS011;32845;59.422;17.930;2023-05-10T16:41:35;4.18;;;1.50;;
44694;SDS011;32845;59.422;17.930;2023-05-10T16:46:09;5.88;;;1.98;;
44694;SDS011;32845;59.422;17.930;2023-05-10T16:50:43;5.03;;;1.50;;
44694;SDS011;32845;59.422;17.930;2023-05-10T16:55:14;7.40;;;1.90;;
44694;SDS011;32845;59.422;17.930;2023-05-10T16:59:45;8.93;;;1.60;;
44694;SDS011;32845;59.422;17.930;2023-05-10T17:04:16;4.65;;;1.92;;
44694;SDS011;32845;59.422;17.930;2023-05-10T17:08:46;5.90;;;1.65;;
44694;SDS011;32845;59.422;17.930;2023-05-10T17:13:17;5.20;;;1.67;;
44694;SDS011;32845;59.422;17.930;2023-05-10T17:17:47;6.47;;;1.70;;
44694;SDS011;32845;59.422;17.930;2023-05-10T17:22:18;7.25;;;1.40;;
44694;SDS011;32845;59.422;17.930;2023-05-10T17:26:49;3.75;;;1.60;;
44694;SDS011;32845;59.422;17.930;2023-05-10T17:31:20;9.85;;;1.60;;
44694;SDS011;32845;59.422;17.930;2023-05-10T17:35:50;4.97;;;1.48;;
44694;SDS011;32845;59.422;17.930;2023-05-10T17:40:21;9.80;;;1.65;;
44694;SDS011;32845;59.422;17.930;2023-05-10T17:44:52;3.17;;;1.63;;
44694;SDS011;32845;59.422;17.930;2023-05-10T17:49:22;4.97;;;1.75;;
44694;SDS011;32845;59.422;17.930;2023-05-10T17:53:53;4.65;;;1.75;;
44694;SDS011;32845;59.422;17.930;2023-05-10T17:58:24;8.63;;;1.92;;
44694;SDS011;32845;59.422;17.930;2023-05-10T18:02:54;13.35;;;1.98;;
44694;SDS011;32845;59.422;17.930;2023-05-10T18:07:25;9.35;;;1.75;;
44694;SDS011;32845;59.422;17.930;2023-05-10T18:11:56;4.13;;;1.52;;
44694;SDS011;32845;59.422;17.930;2023-05-10T18:16:26;4.18;;;1.70;;
44694;SDS011;32845;59.422;17.930;2023-05-10T18:20:57;4.35;;;1.80;;
44694;SDS011;32845;59.422;17.930;2023-05-10T18:25:27;5.85;;;1.60;;
44694;SDS011;32845;59.422;17.930;2023-05-10T18:29:58;10.27;;;2.17;;
44694;SDS011;32845;59.422;17.930;2023-05-10T18:34:28;7.28;;;1.85;;
44694;SDS011;32845;59.422;17.930;2023-05-10T18:38:59;5.18;;;1.83;;
44694;SDS011;32845;59.422;17.930;2023-05-10T18:43:30;5.72;;;1.70;;
44694;SDS011;32845;59.422;17.930;2023-05-10T18:48:02;6.53;;;1.50;;
44694;SDS011;32845;59.422;17.930;2023-05-10T18:52:32;5.07;;;1.67;;
44694;SDS011;32845;59.422;17.930;2023-05-10T18:57:04;5.68;;;1.60;;
44694;SDS011;32845;59.422;17.930;2023-05-10T19:01:35;7.38;;;1.95;;
44694;SDS011;32845;59.422;17.930;2023-05-10T19:06:06;16.25;;;2.65;;
44694;SDS011;32845;59.422;17.930;2023-05-10T19:10:37;25.08;;;2.38;;
44694;SDS011;32845;59.422;17.930;2023-05-10T19:15:08;4.70;;;1.98;;
44694;SDS011;32845;59.422;17.930;2023-05-10T19:19:39;12.80;;;2.08;;
44694;SDS011;32845;59.422;17.930;2023-05-10T19:24:10;9.88;;;1.77;;
44694;SDS011;32845;59.422;17.930;2023-05-10T19:28:40;6.35;;;1.85;;
44694;SDS011;32845;59.422;17.930;2023-05-10T19:33:11;12.73;;;1.52;;
44694;SDS011;32845;59.422;17.930;2023-05-10T19:37:42;10.95;;;1.90;;
44694;SDS011;32845;59.422;17.930;2023-05-10T19:42:15;9.15;;;2.08;;
44694;SDS011;32845;59.422;17.930;2023-05-10T19:46:45;3.83;;;1.65;;
44694;SDS011;32845;59.422;17.930;2023-05-10T19:51:16;5.60;;;1.80;;
44694;SDS011;32845;59.422;17.930;2023-05-10T19:55:46;6.95;;;1.75;;
44694;SDS011;32845;59.422;17.930;2023-05-10T20:00:17;5.03;;;1.88;;
44694;SDS011;32845;59.422;17.930;2023-05-10T20:04:48;5.28;;;1.55;;
44694;SDS011;32845;59.422;17.930;2023-05-10T20:09:19;4.47;;;1.85;;
44694;SDS011;32845;59.422;17.930;2023-05-10T20:13:49;25.45;;;2.90;;
44694;SDS011;32845;59.422;17.930;2023-05-10T20:18:20;5.40;;;1.90;;
44694;SDS011;32845;59.422;17.930;2023-05-10T20:22:51;3.45;;;1.90;;
44694;SDS011;32845;59.422;17.930;2023-05-10T20:27:21;3.45;;;1.73;;
44694;SDS011;32845;59.422;17.930;2023-05-10T20:31:52;4.03;;;1.70;;
44694;SDS011;32845;59.422;17.930;2023-05-10T20:36:23;7.38;;;2.28;;
44694;SDS011;32845;59.422;17.930;2023-05-10T20:40:53;6.90;;;2.20;;
44694;SDS011;32845;59.422;17.930;2023-05-10T20:45:24;14.68;;;2.00;;
44694;SDS011;32845;59.422;17.930;2023-05-10T20:49:55;7.78;;;2.00;;
44694;SDS011;32845;59.422;17.930;2023-05-10T20:54:25;8.07;;;1.88;;
44694;SDS011;32845;59.422;17.930;2023-05-10T20:58:56;8.30;;;2.13;;
44694;SDS011;32845;59.422;17.930;2023-05-10T21:03:26;4.32;;;1.50;;
44694;SDS011;32845;59.422;17.930;2023-05-10T21:07:57;3.55;;;1.90;;
44694;SDS011;32845;59.422;17.930;2023-05-10T21:12:28;7.40;;;2.05;;
44694;SDS011;32845;59.422;17.930;2023-05-10T21:16:58;9.63;;;2.10;;
44694;SDS011;32845;59.422;17.930;2023-05-10T21:21:29;4.75;;;2.08;;
44694;SDS011;32845;59.422;17.930;2023-05-10T21:26:01;7.18;;;2.25;;
44694;SDS011;32845;59.422;17.930;2023-05-10T21:30:32;5.72;;;2.03;;
44694;SDS011;32845;59.422;17.930;2023-05-10T21:35:03;5.95;;;1.98;;
44694;SDS011;32845;59.422;17.930;2023-05-10T21:39:34;5.22;;;2.33;;
44694;SDS011;32845;59.422;17.930;2023-05-10T21:44:05;11.85;;;2.35;;
44694;SDS011;32845;59.422;17.930;2023-05-10T21:48:35;4.22;;;1.95;;
44694;SDS011;32845;59.422;17.930;2023-05-10T21:53:06;6.22;;;2.13;;
44694;SDS011;32845;59.422;17.930;2023-05-10T21:57:36;5.88;;;2.67;;
44694;SDS011;32845;59.422;17.930;2023-05-10T22:02:07;7.03;;;2.42;;
44694;SDS011;32845;59.422;17.930;2023-05-10T22:06:38;5.38;;;2.05;;
44694;SDS011;32845;59.422;17.930;2023-05-10T22:11:08;6.85;;;2.40;;
44694;SDS011;32845;59.422;17.930;2023-05-10T22:15:39;9.68;;;2.90;;
44694;SDS011;32845;59.422;17.930;2023-05-10T22:20:10;9.57;;;2.30;;
44694;SDS011;32845;59.422;17.930;2023-05-10T22:24:40;8.90;;;2.38;;
44694;SDS011;32845;59.422;17.930;2023-05-10T22:29:11;3.88;;;2.13;;
44694;SDS011;32845;59.422;17.930;2023-05-10T22:33:41;5.57;;;2.33;;
44694;SDS011;32845;59.422;17.930;2023-05-10T22:38:12;6.03;;;2.55;;
44694;SDS011;32845;59.422;17.930;2023-05-10T22:42:43;6.40;;;2.20;;
44694;SDS011;32845;59.422;17.930;2023-05-10T22:47:13;6.15;;;2.20;;
44694;SDS011;32845;59.422;17.930;2023-05-10T22:51:45;8.68;;;2.33;;
44694;SDS011;32845;59.422;17.930;2023-05-10T22:56:15;7.03;;;2.10;;
44694;SDS011;32845;59.422;17.930;2023-05-10T23:00:46;7.68;;;2.40;;
44694;SDS011;32845;59.422;17.930;2023-05-10T23:05:17;3.95;;;2.47;;
44694;SDS011;32845;59.422;17.930;2023-05-10T23:09:48;5.38;;;2.55;;
44694;SDS011;32845;59.422;17.930;2023-05-10T23:14:18;8.85;;;2.50;;
44694;SDS011;32845;59.422;17.930;2023-05-10T23:18:49;8.75;;;2.58;;
44694;SDS011;32845;59.422;17.930;2023-05-10T23:23:19;6.43;;;2.22;;
44694;SDS011;32845;59.422;17.930;2023-05-10T23:27:51;7.18;;;2.55;;
44694;SDS011;32845;59.422;17.930;2023-05-10T23:32:22;7.38;;;2.75;;
44694;SDS011;32845;59.422;17.930;2023-05-10T23:36:52;11.45;;;2.28;;
44694;SDS011;32845;59.422;17.930;2023-05-10T23:41:23;6.80;;;2.60;;
44694;SDS011;32845;59.422;17.930;2023-05-10T23:45:55;14.85;;;2.42;;
44694;SDS011;32845;59.422;17.930;2023-05-10T23:50:27;5.63;;;2.10;;
44694;SDS011;32845;59.422;17.930;2023-05-10T23:54:57;7.65;;;2.60;;
44694;SDS011;32845;59.422;17.930;2023-05-10T23:59:28;7.90;;;2.15;;
